This is the latest recevied weather packets stored in our database for station/object HB9MZI. If no packets are shown the sender has not sent any weather packets the latest 10 day(s).
| Time | Temp. | Humidity | Pressure | Rain* | Wind** | Luminosity | Snow |
|---|---|---|---|---|---|---|---|
| 1777829712 | 21.11° C | 59% | 992.3 hPa | 0 mm | 0 m/s | - | - |
| 1777804613 | 21.67° C | 55% | 994.1 hPa | 0 mm | 2.68 m/s, 11° | - | - |
| 1777801892 | 20.56° C | 60% | 994.4 hPa | 0 mm | 0 m/s | - | - |
| 1777800682 | 20° C | 66% | 994.7 hPa | 0 mm | 0.89 m/s, 38° | - | - |
| 1777797055 | 17.78° C | 70% | 995.2 hPa | 0 mm | 1.34 m/s, 4° | - | - |
| 1777780727 | 12.78° C | 92% | 996.1 hPa | 0 mm | 0 m/s | - | - |
| 1777778913 | 12.78° C | 91% | 996.1 hPa | 0 mm | 0 m/s | - | - |
| 1777776796 | 13.33° C | 91% | 996.3 hPa | 0 mm | 0 m/s | - | - |
| 1777775587 | 13.33° C | 90% | 996.4 hPa | 0 mm | 0 m/s | - | - |
| 1777774982 | 13.33° C | 90% | 996.4 hPa | 0 mm | 0 m/s | - | - |
| 1777774378 | 13.33° C | 89% | 996.4 hPa | 0 mm | 0 m/s | - | - |
| 1777773773 | 13.33° C | 90% | 996.4 hPa | 0 mm | 0 m/s | - | - |
| 1777773470 | 13.33° C | 90% | 996.4 hPa | 0 mm | 2.24 m/s, 4° | - | - |
| 1777772261 | 13.89° C | 87% | 996.5 hPa | 0 mm | 0 m/s | - | - |
| 1777771355 | 14.44° C | 85% | 996.6 hPa | 0 mm | 0 m/s | - | - |
| 1777769540 | 15° C | 78% | 996.8 hPa | 0 mm | 0 m/s | - | - |
| 1777768935 | 14.44° C | 82% | 996.8 hPa | 0 mm | 1.34 m/s, 104° | - | - |
| 1777527925 | 12.78° C | 100% | 998.8 hPa | 0 mm | 1.34 m/s, 37° | - | - |
| 1777527623 | 12.78° C | 100% | 998.7 hPa | 0 mm | 2.24 m/s, 15° | - | - |
| 1777527020 | 12.78° C | 100% | 998.5 hPa | 0 mm | 1.34 m/s, 24° | - | - |
| 1777526111 | 12.78° C | 100% | 998.2 hPa | 0 mm | 3.13 m/s, 35° | - | - |
| 1777525206 | 13.33° C | 100% | 997.9 hPa | 0 mm | 2.24 m/s, 41° | - | - |
| 1777524901 | 13.33° C | 100% | 997.8 hPa | 0 mm | 2.24 m/s, 51° | - | - |
| 1777524296 | 13.33° C | 100% | 997.7 hPa | 0 mm | 2.24 m/s, 62° | - | - |
| 1777523994 | 13.33° C | 100% | 997.7 hPa | 0 mm | 1.79 m/s, 62° | - | - |
* Rain latest hour (hover to see other rain measurements)
** Current wind speed in m/s (hover to see current wind gust speed)